Time;durP1;ratioP1;P1;durP2;ratioP2;P2;SDS_P1;SDS_P2;PMS_P1;PMS_P2;Temp;Humidity;BMP_temperature;BMP_pressure;BME280_temperature;BME280_humidity;BME280_pressure;Samples;Min_cycle;Max_cycle;Signal;HPM_P1;HPM_P2
2021/03/13 00:00:53;;;;;;;5.12;2.22;;;;;;;4.46;56.59;95826.84;1786085;80;21245;-82
2021/03/13 00:03:19;;;;;;;5.08;2.00;;;;;;;4.50;56.58;95820.89;1786060;80;21102;-82
2021/03/13 00:05:45;;;;;;;3.20;2.08;;;;;;;4.48;56.84;95817.19;1786043;80;21241;-82
2021/03/13 00:08:12;;;;;;;3.17;1.80;;;;;;;4.54;56.82;95820.89;1786254;80;21432;-83
2021/03/13 00:10:39;;;;;;;3.00;1.80;;;;;;;4.55;56.38;95820.41;1785990;80;21126;-82
2021/03/13 00:13:05;;;;;;;5.12;2.30;;;;;;;4.56;56.61;95820.28;1786056;80;21150;-82
2021/03/13 00:15:32;;;;;;;4.03;1.98;;;;;;;4.53;56.40;95810.28;1786024;80;21229;-82
2021/03/13 00:17:58;;;;;;;3.95;1.67;;;;;;;4.57;56.09;95817.22;1786068;80;21102;-82
2021/03/13 00:20:26;;;;;;;2.75;1.90;;;;;;;4.60;56.05;95811.27;1786258;80;21130;-82
2021/03/13 00:22:52;;;;;;;3.83;2.10;;;;;;;4.61;55.72;95806.45;1786031;80;21125;-82
2021/03/13 00:25:19;;;;;;;2.75;1.57;;;;;;;4.63;56.42;95806.28;1786260;80;21124;-82
2021/03/13 00:27:48;;;;;;;4.65;1.95;;;;;;;4.63;55.71;95810.95;1786096;80;21139;-82
2021/03/13 00:30:25;;;;;;;3.30;2.08;;;;;;;4.68;55.73;95818.98;1786050;80;21141;-82
2021/03/13 00:32:59;;;;;;;3.27;1.47;;;;;;;4.70;55.50;95804.67;1786109;80;21566;-82
2021/03/13 00:35:26;;;;;;;3.05;1.52;;;;;;;4.70;55.24;95803.39;1786235;80;21106;-82
2021/03/13 00:37:52;;;;;;;3.67;1.95;;;;;;;4.73;55.67;95801.33;1786159;80;21408;-82
2021/03/13 00:40:21;;;;;;;3.15;1.77;;;;;;;4.73;55.32;95809.53;1786194;80;21240;-82
2021/03/13 00:42:48;;;;;;;4.78;2.20;;;;;;;4.72;55.44;95807.92;1786339;80;21337;-82
2021/03/13 00:45:16;;;;;;;3.55;1.40;;;;;;;4.69;55.79;95806.92;1786316;80;21114;-82
2021/03/13 00:47:42;;;;;;;2.87;1.40;;;;;;;4.70;55.56;95804.19;1786289;80;21115;-82
2021/03/13 00:50:11;;;;;;;2.98;2.00;;;;;;;4.74;55.75;95799.55;1786186;80;21236;-82
2021/03/13 00:52:36;;;;;;;3.92;1.75;;;;;;;4.73;55.23;95791.03;1786186;80;21146;-82
2021/03/13 00:55:05;;;;;;;3.42;1.90;;;;;;;4.73;55.79;95798.75;1786296;80;21337;-82
2021/03/13 00:57:31;;;;;;;4.00;2.00;;;;;;;4.73;55.56;95789.74;1786187;80;21138;-82
2021/03/13 00:59:56;;;;;;;4.97;2.45;;;;;;;4.67;55.24;95791.65;1786626;80;21248;-82
2021/03/13 01:02:22;;;;;;;3.17;1.75;;;;;;;4.63;55.80;95788.27;1786218;80;21441;-82
2021/03/13 01:04:48;;;;;;;3.72;2.10;;;;;;;4.58;55.71;95787.95;1786426;80;21306;-82
2021/03/13 01:07:15;;;;;;;3.08;2.45;;;;;;;4.56;55.99;95788.59;1757805;80;21401;-82
2021/03/13 01:09:40;;;;;;;3.35;1.75;;;;;;;4.53;56.05;95793.07;1786376;80;21113;-82
2021/03/13 01:12:07;;;;;;;4.85;2.20;;;;;;;4.51;56.16;95788.57;1786320;80;21428;-82
2021/03/13 01:14:33;;;;;;;3.47;1.95;;;;;;;4.51;56.00;95781.33;1786429;80;21106;-82
2021/03/13 01:16:59;;;;;;;2.65;1.98;;;;;;;4.50;55.81;95778.44;1786254;80;21306;-82
2021/03/13 01:19:25;;;;;;;2.98;1.72;;;;;;;4.57;55.87;95778.15;1786359;80;21727;-82
2021/03/13 01:21:51;;;;;;;2.83;1.65;;;;;;;4.60;56.32;95780.39;1786355;80;21126;-83
2021/03/13 01:24:17;;;;;;;3.17;1.85;;;;;;;4.58;56.33;95782.33;1786271;80;21098;-82
2021/03/13 01:26:43;;;;;;;2.42;1.57;;;;;;;4.57;56.47;95780.72;1786548;80;21119;-82
2021/03/13 01:29:09;;;;;;;3.25;2.10;;;;;;;4.52;56.62;95778.59;1786167;80;21110;-82
2021/03/13 01:31:35;;;;;;;3.87;2.35;;;;;;;4.45;56.48;95785.36;1786189;80;21228;-82
2021/03/13 01:34:01;;;;;;;2.25;1.60;;;;;;;4.42;56.87;95789.53;1786145;80;21150;-82
2021/03/13 01:36:27;;;;;;;4.40;2.17;;;;;;;4.41;56.80;95781.50;1786227;80;21098;-82
2021/03/13 01:38:53;;;;;;;3.85;2.05;;;;;;;4.41;56.79;95785.84;1786222;80;21122;-82
2021/03/13 01:41:19;;;;;;;2.80;2.08;;;;;;;4.40;57.21;95790.66;1786530;80;21224;-82
2021/03/13 01:43:45;;;;;;;5.70;3.12;;;;;;;4.39;57.35;95782.59;1786270;80;21118;-82
2021/03/13 01:46:11;;;;;;;2.92;1.87;;;;;;;4.35;57.31;95778.25;1786347;80;21309;-82
2021/03/13 01:48:40;;;;;;;6.28;2.47;;;;;;;4.34;57.37;95774.55;1786307;80;21118;-82
2021/03/13 01:51:06;;;;;;;2.98;1.70;;;;;;;4.33;57.30;95769.89;1785755;80;21240;-82
2021/03/13 01:53:32;;;;;;;3.40;1.95;;;;;;;4.34;57.31;95773.27;1786307;80;21487;-82
2021/03/13 01:55:58;;;;;;;3.00;2.00;;;;;;;4.36;57.48;95772.63;1786237;80;21298;-82
2021/03/13 01:58:24;;;;;;;3.95;2.45;;;;;;;4.34;57.33;95768.13;1781035;80;21131;-82
2021/03/13 02:00:50;;;;;;;2.37;1.90;;;;;;;4.32;57.33;95773.42;1780392;81;21102;-82
2021/03/13 02:03:16;;;;;;;2.42;1.70;;;;;;;4.34;57.30;95766.84;1780423;81;21346;-82
2021/03/13 02:05:45;;;;;;;2.77;1.55;;;;;;;4.29;57.39;95759.60;1780378;80;21107;-82
2021/03/13 02:08:25;;;;;;;2.80;1.92;;;;;;;4.29;57.39;95759.60;1779942;80;21167;-82
2021/03/13 02:11:06;;;;;;;2.85;1.77;;;;;;;4.28;57.53;95759.28;1758378;81;21122;-82
2021/03/13 02:13:56;;;;;;;3.40;1.90;;;;;;;4.31;57.48;95760.25;1780417;80;21131;-82
2021/03/13 02:16:36;;;;;;;5.58;2.25;;;;;;;4.37;57.15;95751.88;1779941;81;21123;-82
2021/03/13 02:19:39;;;;;;;4.17;1.80;;;;;;;4.39;57.46;95750.44;1779865;81;21128;-82
2021/03/13 02:22:05;;;;;;;;;;;;;;;4.38;57.25;95740.63;1782301;81;21130;-82
2021/03/13 02:25:06;;;;;;;3.10;2.17;;;;;;;4.40;56.98;95748.22;1779929;81;20303;-82
2021/03/13 02:27:41;;;;;;;4.70;1.75;;;;;;;4.41;56.96;95733.11;1779767;81;21187;-82
2021/03/13 02:30:14;;;;;;;6.37;2.00;;;;;;;4.44;57.01;95741.30;1780400;81;21106;-82
2021/03/13 02:33:02;;;;;;;2.33;1.15;;;;;;;4.43;56.75;95732.46;1780415;81;21154;-83
2021/03/13 02:35:39;;;;;;;2.00;1.40;;;;;;;4.46;56.12;95720.56;1780434;81;21205;-82
2021/03/13 02:38:14;;;;;;;2.72;1.80;;;;;;;4.55;55.51;95717.02;1779860;80;21261;-82
2021/03/13 02:40:40;;;;;;;2.08;1.57;;;;;;;4.61;55.92;95725.87;1780334;81;21114;-82
2021/03/13 02:43:09;;;;;;;3.90;1.65;;;;;;;4.62;56.43;95715.42;1758642;81;21146;-82
2021/03/13 02:45:40;;;;;;;2.47;1.98;;;;;;;4.63;55.68;95719.60;1780319;81;21114;-82
2021/03/13 02:48:08;;;;;;;3.02;1.35;;;;;;;4.68;55.69;95721.20;1780156;80;21118;-82
2021/03/13 02:50:35;;;;;;;2.37;1.60;;;;;;;4.73;55.18;95709.95;1780354;81;21229;-82
2021/03/13 02:53:01;;;;;;;3.47;1.40;;;;;;;4.76;55.10;95713.49;1758617;81;21745;-82
2021/03/13 02:55:27;;;;;;;3.67;1.82;;;;;;;4.82;55.58;95703.83;1758480;81;21240;-82
2021/03/13 02:57:56;;;;;;;3.90;1.57;;;;;;;4.84;55.40;95715.24;1783579;80;21341;-82
2021/03/13 03:00:23;;;;;;;4.00;1.90;;;;;;;4.80;54.92;95716.05;1757760;80;21318;-82
2021/03/13 03:02:53;;;;;;;2.62;1.75;;;;;;;4.79;55.33;95717.51;1786251;80;21118;-82
2021/03/13 03:05:20;;;;;;;3.12;1.60;;;;;;;4.79;55.40;95712.36;1786100;80;21094;-82
2021/03/13 03:07:46;;;;;;;4.90;3.30;;;;;;;4.86;55.16;95711.22;1786133;80;21421;-82
2021/03/13 03:10:14;;;;;;;1.70;1.25;;;;;;;4.86;54.92;95695.77;1786189;80;21322;-82
2021/03/13 03:12:41;;;;;;;3.52;1.90;;;;;;;4.86;54.84;95706.06;1786073;80;21289;-82
2021/03/13 03:15:09;;;;;;;2.60;1.70;;;;;;;4.87;54.51;95693.03;1786172;80;21306;-82
2021/03/13 03:17:35;;;;;;;4.22;2.22;;;;;;;4.91;54.79;95691.76;1786065;80;21253;-82
2021/03/13 03:20:02;;;;;;;4.40;1.50;;;;;;;4.91;54.93;95714.12;1757631;80;21130;-82
2021/03/13 03:22:28;;;;;;;2.22;1.52;;;;;;;4.92;54.60;95708.81;1786101;80;21444;-82
2021/03/13 03:24:54;;;;;;;4.08;2.00;;;;;;;4.90;54.99;95702.22;1757825;80;21086;-82
2021/03/13 03:27:20;;;;;;;3.17;1.60;;;;;;;4.88;55.03;95706.25;1786072;80;21131;-82
2021/03/13 03:29:46;;;;;;;5.33;2.72;;;;;;;4.86;54.68;95684.99;1786189;80;21126;-82
2021/03/13 03:32:12;;;;;;;10.72;4.95;;;;;;;4.88;55.09;95692.55;1786269;80;21334;-82
2021/03/13 03:34:38;;;;;;;4.53;2.27;;;;;;;4.82;55.17;95691.44;1786189;80;21087;-82
2021/03/13 03:37:05;;;;;;;5.22;2.52;;;;;;;4.82;54.63;95680.66;1786056;80;21098;-83
2021/03/13 03:39:31;;;;;;;3.60;2.00;;;;;;;4.83;55.20;95679.69;1786105;80;21138;-82
2021/03/13 03:41:57;;;;;;;4.95;2.50;;;;;;;4.84;54.99;95684.35;1786128;80;21083;-82
2021/03/13 03:44:27;;;;;;;4.08;2.50;;;;;;;4.82;55.04;95671.65;1786116;80;21106;-82
2021/03/13 03:46:58;;;;;;;2.92;2.17;;;;;;;4.81;55.12;95667.47;1786082;80;21241;-82
2021/03/13 03:49:24;;;;;;;3.13;1.77;;;;;;;4.79;55.04;95670.70;1786363;80;21129;-82
2021/03/13 03:51:50;;;;;;;4.85;2.17;;;;;;;4.80;54.89;95654.28;1786040;80;21471;-82
2021/03/13 03:54:16;;;;;;;4.33;1.82;;;;;;;4.82;55.02;95657.98;1786040;80;21158;-82
2021/03/13 03:56:43;;;;;;;2.05;1.50;;;;;;;4.85;54.96;95657.64;1786212;80;21110;-82
2021/03/13 03:59:17;;;;;;;3.40;2.42;;;;;;;4.86;54.17;95643.80;1780398;80;21134;-82
2021/03/13 04:01:48;;;;;;;4.10;2.40;;;;;;;4.88;54.51;95662.48;1780626;81;21114;-82
2021/03/13 04:04:18;;;;;;;4.65;2.00;;;;;;;4.88;54.49;95639.33;1758669;81;21338;-83
2021/03/13 04:06:44;;;;;;;3.50;1.98;;;;;;;4.84;54.41;95639.31;1780263;81;21404;-82
2021/03/13 04:09:10;;;;;;;4.60;2.02;;;;;;;4.82;54.83;95642.53;1780350;81;21134;-83
2021/03/13 04:11:36;;;;;;;3.25;1.85;;;;;;;4.79;55.02;95660.88;1780536;81;21099;-82
2021/03/13 04:14:03;;;;;;;3.45;1.92;;;;;;;4.76;55.13;95650.44;1758616;81;21529;-83
2021/03/13 04:16:29;;;;;;;2.33;1.25;;;;;;;4.76;55.07;95661.22;1780492;81;21237;-83
2021/03/13 04:18:57;;;;;;;2.60;1.55;;;;;;;4.75;54.68;95648.03;1780445;81;21130;-83
2021/03/13 04:21:22;;;;;;;4.20;1.80;;;;;;;4.76;54.72;95652.20;1734228;81;21353;-82
2021/03/13 04:23:49;;;;;;;5.33;1.70;;;;;;;4.77;55.11;95652.52;1780475;81;21233;-83
2021/03/13 04:26:18;;;;;;;2.42;1.40;;;;;;;4.75;54.86;95650.12;1780377;81;21107;-82
2021/03/13 04:28:45;;;;;;;3.62;1.60;;;;;;;4.78;55.26;95645.12;1780513;81;21342;-82
2021/03/13 04:31:11;;;;;;;3.15;1.45;;;;;;;4.76;54.96;95649.63;1733576;81;21134;-82
2021/03/13 04:33:38;;;;;;;4.55;1.85;;;;;;;4.77;54.97;95641.75;1780371;81;21142;-82
2021/03/13 04:36:05;;;;;;;2.55;1.50;;;;;;;4.79;55.47;95648.81;1780400;80;21281;-82
2021/03/13 04:38:31;;;;;;;3.37;1.62;;;;;;;4.79;55.07;95638.52;1733802;81;21122;-82
2021/03/13 04:40:57;;;;;;;4.75;2.22;;;;;;;4.84;55.05;95640.59;1780707;81;21122;-83
2021/03/13 04:43:25;;;;;;;2.52;1.27;;;;;;;4.93;55.19;95640.11;1780465;81;21118;-82
2021/03/13 04:45:58;;;;;;;2.17;1.20;;;;;;;4.94;55.13;95633.98;1780443;81;21236;-83
2021/03/13 04:48:25;;;;;;;3.30;1.42;;;;;;;4.92;55.22;95634.16;1779837;80;21131;-82
2021/03/13 04:50:51;;;;;;;4.05;2.15;;;;;;;4.92;55.11;95633.35;1758633;81;21353;-83
2021/03/13 04:53:17;;;;;;;4.92;2.05;;;;;;;4.92;55.44;95639.30;1780508;80;21154;-82
2021/03/13 04:55:43;;;;;;;3.30;1.52;;;;;;;4.90;55.64;95638.67;1780571;81;21117;-82
2021/03/13 04:58:09;;;;;;;4.17;1.87;;;;;;;4.87;55.62;95631.73;1783075;80;21130;-83
2021/03/13 05:00:35;;;;;;;2.47;1.60;;;;;;;4.83;55.96;95629.50;1786163;80;21105;-83
2021/03/13 05:03:01;;;;;;;3.67;1.65;;;;;;;4.82;55.99;95634.33;1786169;80;21110;-82
2021/03/13 05:05:32;;;;;;;3.55;1.80;;;;;;;4.82;55.99;95635.61;1786282;80;21119;-83
2021/03/13 05:07:55;;;;;;;3.90;1.65;;;;;;;4.83;55.85;95638.50;1785617;80;21252;-83
2021/03/13 05:10:21;;;;;;;3.87;2.08;;;;;;;4.88;55.92;95619.19;1786227;80;21244;-82
2021/03/13 05:12:47;;;;;;;3.60;1.90;;;;;;;4.92;55.99;95630.30;1786130;80;21102;-82
2021/03/13 05:15:14;;;;;;;4.83;1.92;;;;;;;4.93;56.25;95638.34;1732939;80;21070;-82
2021/03/13 05:17:40;;;;;;;4.03;1.60;;;;;;;4.91;56.31;95622.74;1786200;80;21110;-82
2021/03/13 05:20:07;;;;;;;5.12;2.05;;;;;;;4.92;56.50;95626.92;1786178;80;21063;-82
2021/03/13 05:22:33;;;;;;;4.08;1.95;;;;;;;4.91;56.65;95629.98;1786177;80;21082;-83
2021/03/13 05:24:59;;;;;;;4.15;2.80;;;;;;;4.93;56.44;95636.25;1786185;80;21110;-83
2021/03/13 05:27:25;;;;;;;5.25;2.15;;;;;;;4.96;56.67;95631.56;1786201;80;21098;-82
2021/03/13 05:29:51;;;;;;;5.53;2.17;;;;;;;4.99;56.45;95631.23;1786113;80;21117;-83
2021/03/13 05:32:17;;;;;;;3.92;1.95;;;;;;;5.01;56.46;95623.34;1786157;80;21094;-83
2021/03/13 05:34:43;;;;;;;4.25;2.20;;;;;;;5.06;56.54;95628.33;1786451;80;21110;-83
2021/03/13 05:37:08;;;;;;;4.25;2.10;;;;;;;5.07;56.76;95620.92;1786194;80;21114;-82
2021/03/13 05:39:34;;;;;;;4.17;1.87;;;;;;;5.10;56.83;95627.02;1785625;80;21264;-82
2021/03/13 05:42:02;;;;;;;5.10;2.30;;;;;;;5.12;56.94;95623.79;1785616;80;21373;-82
2021/03/13 05:44:28;;;;;;;4.97;2.30;;;;;;;5.17;56.90;95637.45;1786184;80;21460;-83
2021/03/13 05:46:54;;;;;;;3.92;1.55;;;;;;;5.21;56.73;95640.03;1786288;80;21232;-83
2021/03/13 05:49:20;;;;;;;3.60;1.65;;;;;;;5.26;56.68;95640.33;1786261;80;21118;-82
2021/03/13 05:51:46;;;;;;;6.85;2.05;;;;;;;5.31;56.85;95653.50;1786230;80;21122;-83
2021/03/13 05:54:18;;;;;;;4.05;1.80;;;;;;;5.35;56.65;95652.19;1786418;80;21154;-82
2021/03/13 05:56:45;;;;;;;3.17;2.17;;;;;;;5.39;56.65;95653.97;1786555;80;21098;-82
2021/03/13 05:59:11;;;;;;;4.80;1.80;;;;;;;5.41;56.93;95673.44;1781742;80;21568;-82
2021/03/13 06:01:38;;;;;;;3.62;1.60;;;;;;;5.42;56.78;95663.45;1780411;81;21318;-83
2021/03/13 06:04:04;;;;;;;3.98;1.62;;;;;;;5.44;56.64;95674.88;1780497;81;21111;-82
2021/03/13 06:06:36;;;;;;;4.37;1.82;;;;;;;5.45;56.72;95658.93;1780418;81;21119;-83
2021/03/13 06:09:03;;;;;;;5.47;1.80;;;;;;;5.45;57.09;95653.29;1780397;81;21241;-83
2021/03/13 06:11:29;;;;;;;2.55;1.62;;;;;;;5.43;57.10;95643.64;1780471;81;21140;-83
2021/03/13 06:13:55;;;;;;;4.12;1.87;;;;;;;5.42;57.38;95643.33;1780397;80;21155;-82
2021/03/13 06:16:22;;;;;;;4.45;2.30;;;;;;;5.41;57.55;95660.56;1780323;81;21150;-82
2021/03/13 06:18:54;;;;;;;2.83;1.30;;;;;;;5.39;57.88;95660.41;1757775;81;21256;-82
2021/03/13 06:21:36;;;;;;;2.77;1.50;;;;;;;5.38;58.38;95663.96;1780005;81;21420;-82
2021/03/13 06:24:14;;;;;;;4.33;2.00;;;;;;;5.36;58.63;95649.93;1780424;81;21794;-83
2021/03/13 06:26:59;;;;;;;4.72;2.12;;;;;;;5.34;58.79;95646.72;1780480;81;21088;-82
2021/03/13 06:29:26;;;;;;;3.25;1.70;;;;;;;5.33;58.81;95660.58;1780365;81;21333;-83
2021/03/13 06:32:07;;;;;;;3.92;2.10;;;;;;;5.31;58.95;95652.70;1780421;81;21301;-83
2021/03/13 06:34:33;;;;;;;5.83;2.77;;;;;;;5.30;59.13;95660.11;1779248;80;21150;-82
2021/03/13 06:37:25;;;;;;;5.53;2.45;;;;;;;5.29;59.46;95673.48;1780430;80;21094;-82
2021/03/13 06:39:52;;;;;;;3.17;1.90;;;;;;;5.27;59.61;95672.84;1780412;81;21110;-82
2021/03/13 06:42:29;;;;;;;6.22;2.87;;;;;;;5.24;60.06;95674.47;1780433;81;21245;-82
2021/03/13 06:45:05;;;;;;;5.78;2.50;;;;;;;5.22;60.17;95664.81;1779112;80;21150;-82
2021/03/13 06:47:38;;;;;;;3.72;2.08;;;;;;;5.20;60.27;95654.34;1780341;81;21150;-82
2021/03/13 06:50:21;;;;;;;6.75;2.55;;;;;;;5.16;60.58;95653.88;1780285;81;21134;-82
2021/03/13 06:53:08;;;;;;;4.85;2.02;;;;;;;5.16;60.76;95669.81;1780307;81;21150;-82
2021/03/13 06:55:34;;;;;;;5.85;2.33;;;;;;;5.15;60.97;95686.23;1780367;80;21107;-82
2021/03/13 06:58:12;;;;;;;5.90;2.45;;;;;;;5.15;61.12;95695.24;1781053;80;21201;-82
2021/03/13 07:00:39;;;;;;;6.15;2.30;;;;;;;5.15;61.57;95710.70;1786007;80;21104;-82
2021/03/13 07:03:11;;;;;;;4.72;2.70;;;;;;;5.13;61.77;95709.09;1786166;80;21134;-83
2021/03/13 07:05:42;;;;;;;3.55;2.37;;;;;;;5.15;61.83;95706.34;1786267;80;21324;-82
2021/03/13 07:08:29;;;;;;;4.92;2.25;;;;;;;5.13;61.78;95703.14;1786348;80;21098;-83
2021/03/13 07:11:13;;;;;;;6.45;2.72;;;;;;;5.15;61.97;95706.84;1759231;80;21110;-83
2021/03/13 07:13:51;;;;;;;3.72;1.95;;;;;;;5.18;62.18;95695.71;1786087;80;21575;-82
2021/03/13 07:16:37;;;;;;;6.03;2.92;;;;;;;5.21;62.08;95704.91;1786216;80;21098;-82
2021/03/13 07:19:09;;;;;;;4.55;2.20;;;;;;;5.27;62.30;95702.47;1786176;80;21114;-83
2021/03/13 07:21:37;;;;;;;4.40;2.17;;;;;;;5.36;62.34;95707.09;1786292;80;21507;-83
2021/03/13 07:24:09;;;;;;;4.65;2.20;;;;;;;5.39;62.24;95723.05;1785418;80;21404;-82
2021/03/13 07:26:43;;;;;;;3.02;2.35;;;;;;;5.42;62.23;95720.13;1786342;80;21240;-83
2021/03/13 07:29:11;;;;;;;4.05;2.20;;;;;;;5.45;62.26;95717.70;1786036;80;21256;-83
2021/03/13 07:31:40;;;;;;;3.65;1.95;;;;;;;5.47;62.15;95723.98;1786269;80;21110;-83
2021/03/13 07:34:19;;;;;;;5.87;2.02;;;;;;;5.48;62.25;95739.75;1785700;80;21333;-83
2021/03/13 07:36:49;;;;;;;4.87;2.77;;;;;;;5.50;62.17;95726.22;1786278;80;21110;-82
2021/03/13 07:39:19;;;;;;;4.28;2.27;;;;;;;5.52;62.51;95737.96;1786122;80;21342;-83
2021/03/13 07:42:02;;;;;;;3.10;1.65;;;;;;;5.51;62.09;95737.64;1782200;80;21156;-83
2021/03/13 07:44:28;;;;;;;4.80;2.10;;;;;;;5.53;62.14;95743.46;1776341;81;21111;-83
2021/03/13 07:46:54;;;;;;;2.45;1.70;;;;;;;5.56;62.05;95744.41;1708568;83;21265;-83
2021/03/13 07:49:20;;;;;;;4.85;1.92;;;;;;;5.59;62.35;95749.72;1708531;84;21142;-83
2021/03/13 07:51:46;;;;;;;4.12;2.20;;;;;;;5.60;62.30;95733.28;1708585;83;21281;-82
2021/03/13 07:54:14;;;;;;;5.28;3.62;;;;;;;5.61;62.25;95741.33;1776637;81;21079;-83
2021/03/13 07:56:41;;;;;;;4.42;2.00;;;;;;;5.62;62.48;95739.87;1777090;80;21127;-82
2021/03/13 07:59:11;;;;;;;4.90;2.27;;;;;;;5.64;62.14;95743.08;1707972;83;21230;-83
2021/03/13 08:01:48;;;;;;;4.67;1.80;;;;;;;5.63;62.36;95738.91;1773834;81;21322;-83
2021/03/13 08:04:45;;;;;;;3.90;1.95;;;;;;;5.70;62.26;95743.72;1707575;84;21136;-83
2021/03/13 08:07:12;;;;;;;4.47;1.82;;;;;;;5.74;62.32;95746.77;1707590;83;21323;-83
2021/03/13 08:09:43;;;;;;;4.65;1.80;;;;;;;5.80;62.08;95746.09;1707630;84;21135;-83
2021/03/13 08:12:10;;;;;;;3.22;1.72;;;;;;;5.83;62.16;95738.50;1707718;84;21150;-82
2021/03/13 08:14:36;;;;;;;5.20;2.17;;;;;;;5.83;62.01;95733.34;1707573;84;21172;-83
2021/03/13 08:17:06;;;;;;;5.60;2.10;;;;;;;5.88;62.06;95731.89;1707606;83;21123;-83
2021/03/13 08:19:42;;;;;;;5.92;1.90;;;;;;;5.94;62.10;95735.59;1773857;80;21332;-83
2021/03/13 08:22:16;;;;;;;4.28;2.20;;;;;;;5.98;61.74;95726.05;1707131;84;21164;-82
2021/03/13 08:24:53;;;;;;;5.78;3.40;;;;;;;5.99;61.64;95733.30;1707708;83;21119;-83
2021/03/13 08:27:39;;;;;;;7.00;3.50;;;;;;;6.03;62.19;95729.44;1707641;84;21128;-83
2021/03/13 08:30:23;;;;;;;47.17;28.87;;;;;;;6.08;61.88;95731.50;1707519;84;21269;-82
2021/03/13 08:33:05;;;;;;;21.60;13.32;;;;;;;6.15;61.89;95739.66;1773723;81;21257;-83
2021/03/13 08:35:45;;;;;;;46.48;24.15;;;;;;;6.23;61.84;95745.28;1773919;81;21445;-83
2021/03/13 08:38:12;;;;;;;51.50;25.48;;;;;;;6.26;61.31;95738.48;1707898;84;21088;-83
2021/03/13 08:40:48;;;;;;;31.73;17.80;;;;;;;6.28;61.23;95745.08;1773672;81;21299;-83
2021/03/13 08:43:36;;;;;;;32.50;23.83;;;;;;;6.33;61.42;95753.59;1772294;81;21245;-82
2021/03/13 08:46:03;;;;;;;13.35;10.35;;;;;;;6.31;60.95;95749.89;1773744;81;21095;-83
2021/03/13 08:48:57;;;;;;;10.82;9.05;;;;;;;6.31;60.86;95753.76;1773863;81;21142;-83
2021/03/13 08:51:23;;;;;;;14.28;12.20;;;;;;;6.32;60.94;95748.11;1707701;84;21442;-83
2021/03/13 08:53:49;;;;;;;9.70;8.10;;;;;;;6.36;61.14;95742.15;1773876;81;21133;-83
2021/03/13 08:56:44;;;;;;;14.87;7.45;;;;;;;6.42;61.29;95745.32;1773789;81;21409;-83
2021/03/13 08:59:18;;;;;;;7.78;4.95;;;;;;;6.50;60.71;95738.31;1698535;83;21607;-83
2021/03/13 09:02:06;;;;;;;64.77;32.33;;;;;;;6.61;61.00;95743.57;1686400;85;21798;-83
2021/03/13 09:04:33;;;;;;;13.68;10.25;;;;;;;6.71;60.58;95744.16;1684808;85;21135;-83
2021/03/13 09:07:00;;;;;;;13.25;6.42;;;;;;;6.82;60.39;95746.30;1686392;85;21142;-83
2021/03/13 09:09:28;;;;;;;9.60;5.53;;;;;;;6.90;59.92;95739.00;1713470;84;21318;-83
2021/03/13 09:11:57;;;;;;;3.33;2.55;;;;;;;6.99;60.21;95750.84;1686238;85;21143;-83
2021/03/13 09:14:24;;;;;;;27.17;7.95;;;;;;;7.01;59.73;95738.59;1712001;84;21298;-83
2021/03/13 09:16:50;;;;;;;37.85;11.70;;;;;;;7.06;59.88;95744.02;1686227;85;21260;-83
2021/03/13 09:19:16;;;;;;;21.05;10.13;;;;;;;7.11;60.00;95748.17;1716263;84;21468;-83
2021/03/13 09:21:54;;;;;;;5.55;4.85;;;;;;;7.13;59.67;95741.04;1703826;84;21349;-82
2021/03/13 09:24:23;;;;;;;6.60;3.92;;;;;;;7.14;59.97;95742.64;1713270;84;21112;-83
2021/03/13 09:26:53;;;;;;;38.50;16.42;;;;;;;7.14;59.81;95743.13;1685245;85;21163;-83
2021/03/13 09:29:35;;;;;;;9.88;6.40;;;;;;;7.14;60.26;95745.72;1684300;85;21297;-83
2021/03/13 09:32:08;;;;;;;8.83;5.75;;;;;;;7.15;59.96;95742.95;1686324;85;21151;-83
2021/03/13 09:34:39;;;;;;;13.22;7.12;;;;;;;7.15;60.01;95737.78;1713316;84;21277;-83
2021/03/13 09:37:26;;;;;;;13.50;6.65;;;;;;;7.19;60.38;95739.55;1686194;85;21147;-83
2021/03/13 09:40:06;;;;;;;5.75;2.98;;;;;;;7.17;59.75;95738.93;1712099;84;21119;-83
2021/03/13 09:42:32;;;;;;;6.05;3.45;;;;;;;7.11;59.62;95738.32;1686306;85;21127;-83
2021/03/13 09:45:11;;;;;;;7.90;4.00;;;;;;;7.06;59.77;95732.89;1713240;84;21400;-83
2021/03/13 09:47:54;;;;;;;5.62;3.08;;;;;;;7.03;59.81;95735.34;1683484;85;21132;-83
2021/03/13 09:50:31;;;;;;;17.12;8.78;;;;;;;7.02;59.48;95728.57;1716457;84;21115;-83
2021/03/13 09:52:58;;;;;;;9.45;5.50;;;;;;;7.00;59.63;95731.82;1684763;85;21516;-82
2021/03/13 09:55:25;;;;;;;15.25;9.73;;;;;;;6.95;59.64;95723.77;1658926;85;21103;-83
2021/03/13 09:57:53;;;;;;;8.90;7.05;;;;;;;6.90;59.81;95716.55;1713381;84;21311;-83
2021/03/13 10:00:26;;;;;;;10.25;5.12;;;;;;;6.93;60.25;95720.08;1695270;84;21112;-83
2021/03/13 10:02:54;;;;;;;5.85;3.47;;;;;;;7.02;59.92;95711.78;1689462;85;21321;-83
2021/03/13 10:05:22;;;;;;;6.42;4.05;;;;;;;7.16;59.68;95718.75;1753836;81;21115;-83
2021/03/13 10:07:50;;;;;;;5.28;2.90;;;;;;;7.27;58.91;95714.11;1753846;81;21111;-83
2021/03/13 10:10:18;;;;;;;5.00;2.65;;;;;;;7.30;58.91;95721.50;1753861;81;21306;-83
2021/03/13 10:12:51;;;;;;;5.35;2.27;;;;;;;7.37;58.16;95712.88;1753871;81;21274;-83
2021/03/13 10:15:34;;;;;;;6.67;4.00;;;;;;;7.44;58.19;95697.45;1753601;81;21163;-83
2021/03/13 10:18:10;;;;;;;9.15;5.33;;;;;;;7.47;58.13;95699.18;1753864;81;21131;-83
2021/03/13 10:20:53;;;;;;;13.05;9.50;;;;;;;7.54;57.85;95703.16;1802569;79;27953;-82
2021/03/13 10:23:32;;;;;;;7.58;4.78;;;;;;;7.60;58.07;95695.17;1788957;80;21113;-82
2021/03/13 10:26:03;;;;;;;7.45;4.12;;;;;;;7.66;57.56;95685.42;1759701;80;21118;-82
2021/03/13 10:28:47;;;;;;;6.55;3.20;;;;;;;7.73;56.68;95688.39;1788978;80;21232;-83
2021/03/13 10:31:19;;;;;;;5.78;3.83;;;;;;;7.90;55.99;95680.42;1788945;80;21320;-82
2021/03/13 10:33:49;;;;;;;7.10;3.92;;;;;;;8.06;56.80;95676.31;1788063;80;21082;-83
2021/03/13 10:36:17;;;;;;;8.73;4.55;;;;;;;8.26;55.61;95674.73;1789628;80;21329;-83
2021/03/13 10:38:46;;;;;;;9.03;5.00;;;;;;;8.44;56.24;95676.91;1789528;80;21126;-83
2021/03/13 10:41:14;;;;;;;8.15;3.90;;;;;;;8.62;55.62;95673.88;1788829;80;21114;-83
2021/03/13 10:43:44;;;;;;;5.65;2.50;;;;;;;8.79;55.02;95666.19;1761620;80;21130;-83
2021/03/13 10:46:19;;;;;;;6.97;3.55;;;;;;;8.99;54.78;95661.14;1789349;80;21109;-83
2021/03/13 10:48:55;;;;;;;2.80;2.22;;;;;;;9.17;53.53;95669.23;1789552;80;21106;-83
2021/03/13 10:51:41;;;;;;;7.58;2.98;;;;;;;9.25;53.97;95674.75;1789530;80;21300;-83
2021/03/13 10:54:04;;;;;;;3.52;2.30;;;;;;;9.37;53.96;95684.89;1764148;80;21376;-83
2021/03/13 10:56:38;;;;;;;4.53;2.58;;;;;;;9.45;52.98;95667.10;1760879;80;21101;-83
2021/03/13 10:59:04;;;;;;;3.67;2.42;;;;;;;9.53;53.68;95682.48;1789525;80;21312;-83
2021/03/13 11:01:30;;;;;;;5.40;2.30;;;;;;;9.61;53.96;95664.19;1789536;80;21308;-83
2021/03/13 11:03:56;;;;;;;5.92;3.08;;;;;;;9.62;53.53;95663.99;1789522;80;21232;-83
2021/03/13 11:06:31;;;;;;;4.65;2.58;;;;;;;9.54;53.42;95659.45;1789808;80;21117;-83
2021/03/13 11:08:59;;;;;;;5.20;2.27;;;;;;;9.47;52.75;95662.02;1789538;80;21400;-83
2021/03/13 11:11:25;;;;;;;4.37;2.83;;;;;;;9.44;52.45;95657.23;1789905;80;21248;-83
2021/03/13 11:13:51;;;;;;;5.87;3.25;;;;;;;9.47;52.11;95649.55;1789488;80;21078;-83
2021/03/13 11:16:22;;;;;;;6.92;2.60;;;;;;;9.42;52.94;95650.11;1789726;80;21063;-83
2021/03/13 11:18:50;;;;;;;4.72;2.62;;;;;;;9.37;52.82;95630.95;1788901;80;21204;-83
2021/03/13 11:21:17;;;;;;;3.02;1.92;;;;;;;9.41;52.44;95632.16;1784565;80;21074;-83
2021/03/13 11:23:43;;;;;;;4.50;2.37;;;;;;;9.39;52.04;95628.45;1784542;80;21115;-83
2021/03/13 11:26:11;;;;;;;3.08;1.98;;;;;;;9.43;53.36;95615.41;1784808;80;21079;-83
2021/03/13 11:28:37;;;;;;;4.42;2.65;;;;;;;9.47;51.70;95606.27;1784567;80;21078;-83
2021/03/13 11:31:05;;;;;;;3.17;2.10;;;;;;;9.38;51.78;95600.94;1784219;80;21301;-83
2021/03/13 11:33:31;;;;;;;3.90;2.25;;;;;;;9.28;52.03;95609.08;1757763;80;21106;-83
2021/03/13 11:35:57;;;;;;;5.65;3.05;;;;;;;9.18;52.47;95605.23;1783955;80;21094;-83
2021/03/13 11:38:23;;;;;;;4.65;2.58;;;;;;;9.17;53.49;95594.06;1784014;80;21263;-83
2021/03/13 11:40:49;;;;;;;4.60;2.27;;;;;;;9.20;53.11;95585.90;1784046;80;21070;-83
2021/03/13 11:43:15;;;;;;;5.33;3.35;;;;;;;9.24;53.15;95589.70;1783966;80;21247;-83
2021/03/13 11:45:41;;;;;;;3.12;1.98;;;;;;;9.27;52.64;95583.33;1784213;80;21098;-83
2021/03/13 11:48:08;;;;;;;3.33;2.12;;;;;;;9.37;52.38;95577.30;1784000;80;21098;-83
2021/03/13 11:50:34;;;;;;;4.95;2.58;;;;;;;9.47;51.76;95566.08;1783974;80;21367;-83
2021/03/13 11:53:00;;;;;;;3.10;1.77;;;;;;;9.49;51.88;95566.68;1784028;80;21090;-83
2021/03/13 11:55:26;;;;;;;4.37;2.70;;;;;;;9.50;51.21;95558.41;1783964;80;21066;-83